Latest Weather Observations for Wyndham Airport

IDD60801

Issued at 11:51 am CST Saturday 17 November 2018 (issued every 10 minutes, with the page automatically refreshed every 10 minutes)

About weather observations | Map of weather stations | Latest weather observations for NT | Other Formats
Station Details ID: 001006 Name: WYNDHAM AERO Lat: -15.51 Lon: 128.15 Height: 3.8 m
Data from the previous 72 hours. | See also: Recent months at Wyndham Airport
Date/Time
CST
Temp
°C
App
Temp
°C
Dew
Point
°C
Rel
Hum
%
Delta-T
°C
Wind Press
QNH
hPa
Press
MSL
hPa
Rain since
9am
mm
Dir  Spd
km/h
Gust
km/h
Spd
kts
Gust
kts
17/11:30am 35.4 35.0 19.3 38 10.7 ENE 20 32 11 17 1011.4 1011.4 0.0
17/11:00am 34.5 34.7 20.5 44 9.4 NE 20 32 11 17 1011.9 1011.9 0.0
17/10:30am 33.6 33.5 20.7 46 8.7 ENE 22 32 12 17 1012.1 1012.1 1.2
17/10:00am 32.3 32.1 21.2 52 7.5 NE 24 30 13 16 1012.2 1012.2 1.2
17/09:30am 32.8 32.8 19.7 46 8.7 E 19 28 10 15 1011.9 1011.9 1.2
17/09:00am 31.9 33.0 20.5 51 7.6 E 15 22 8 12 1012.0 1012.0 1.2
17/08:30am 31.2 34.7 21.9 57 6.3 ENE 6 13 3 7 1012.2 1012.2 1.2
17/08:00am 29.4 33.3 22.6 67 4.6 NNW 6 7 3 4 1012.2 1012.2 1.2
17/07:30am 28.0 33.0 23.2 75 3.3 ENE 2 6 1 3 1011.9 1011.9 1.2
17/07:00am 27.1 32.4 23.1 79 2.7 CALM 0 0 0 0 1011.5 1011.5 1.2
17/06:30am 26.7 32.0 23.0 80 2.5 CALM 0 0 0 0 1010.8 1010.8 1.2
17/06:00am 25.9 29.3 22.0 79 2.6 E 7 9 4 5 1010.2 1010.2 1.2
17/05:30am 26.1 29.5 21.7 77 2.9 ENE 6 7 3 4 1009.2 1009.2 1.2
17/05:00am 26.3 30.0 22.2 78 2.8 NNE 6 7 3 4 1008.8 1008.8 1.2
17/04:30am 26.4 30.3 22.5 79 2.6 N 6 7 3 4 1008.5 1008.5 1.2
17/04:00am 26.7 30.5 22.8 79 2.6 NE 7 9 4 5 1008.2 1008.2 1.2
17/03:30am 27.3 30.3 22.0 73 3.6 SE 9 11 5 6 1008.5 1008.5 1.2
17/03:00am 27.1 29.8 21.4 71 3.8 SSE 9 11 5 6 1008.2 1008.2 1.2
17/02:30am 27.1 31.0 22.5 76 3.1 SSE 6 7 3 4 1007.9 1007.9 1.2
17/02:00am 27.2 30.1 22.4 75 3.2 WSW 11 13 6 7 1007.6 1007.6 1.2
17/01:30am 27.0 28.3 22.6 77 3.0 W 20 28 11 15 1008.0 1008.0 1.2
17/01:00am 27.3 29.9 22.7 76 3.1 WNW 13 19 7 10 1008.6 1008.6 1.2
17/12:30am 27.4 29.3 22.1 73 3.6 W 15 19 8 10 1008.7 1008.7 1.2
17/12:00am 27.5 28.8 22.7 75 3.3 WNW 20 28 11 15 1008.9 1008.9 1.2
 
Date/Time
CST
Temp
°C
App
Temp
°C
Dew
Point
°C
Rel
Hum
%
Delta-T
°C
Wind Press
QNH
hPa
Press
MSL
hPa
Rain since
9am
mm
Dir  Spd
km/h
Gust
km/h
Spd
kts
Gust
kts
16/11:30pm 27.8 28.1 22.3 72 3.7 NW 24 32 13 17 1009.3 1009.3 1.2
16/11:00pm 27.4 27.3 21.4 70 4.0 NNW 24 33 13 18 1009.6 1009.6 1.2
16/10:30pm 27.2 29.0 22.6 76 3.1 NNW 17 24 9 13 1010.0 1010.0 1.2
16/10:00pm 27.1 30.6 23.6 81 2.4 NW 11 17 6 9 1011.3 1011.3 1.0
16/09:30pm 27.0 30.4 23.3 80 2.5 NW 11 13 6 7 1011.4 1011.4 1.0
16/09:00pm 27.7 30.4 22.9 75 3.3 WNW 13 17 7 9 1011.2 1011.2 0.4
16/08:30pm 28.6 30.8 21.9 67 4.5 WNW 13 20 7 11 1010.9 1010.9 0.0
16/08:00pm 29.5 28.9 21.2 61 5.5 WSW 26 33 14 18 1010.5 1010.5 0.0
16/07:44pm 30.1 29.1 20.4 56 6.4 SW 26 50 14 27 1010.2 1010.2 0.0
16/07:42pm 30.4 30.2 19.7 52 7.0 SSW 20 43 11 23 1010.1 1010.1 0.0
16/07:30pm 30.3 31.0 20.5 55 6.5 E 17 22 9 12 1009.1 1009.1 0.0
16/07:04pm 31.0 30.3 18.7 48 8.0 ENE 20 41 11 22 1008.2 1008.2 0.0
16/07:00pm 32.2 32.4 17.7 42 9.3 ENE 13 22 7 12 1008.1 1008.1 0.0
16/06:37pm 32.1 31.2 18.3 44 8.9 SE 20 43 11 23 1007.8 1007.8 0.0
16/06:30pm 32.4 32.1 19.6 46 8.4 S 20 39 11 21 1006.6 1006.6 0.0
16/06:08pm 32.0 28.6 18.9 45 8.5 S 35 69 19 37 1006.5 1006.5 0.0
16/06:03pm 33.0 31.7 17.2 39 10.1 ESE 20 48 11 26 1006.8 1006.8 0.0
16/06:00pm 35.4 34.2 16.2 32 12.2 NNE 17 39 9 21 1006.9 1006.9 0.0
16/05:30pm 38.1 37.3 18.5 31 13.0 NNE 20 32 11 17 1005.7 1005.7 0.0
16/05:00pm 38.2 36.7 18.6 31 12.9 N 24 35 13 19 1005.0 1005.0 0.0
16/04:30pm 39.4 37.9 18.6 29 13.8 N 24 33 13 18 1005.1 1005.1 0.0
16/04:00pm 38.8 36.8 17.5 28 13.9 N 24 35 13 19 1004.8 1004.8 0.0
16/03:30pm 39.7 38.6 17.8 28 14.4 NNW 20 30 11 16 1005.6 1005.6 0.0
16/03:00pm 38.9 38.2 18.2 30 13.6 N 19 33 10 18 1006.0 1006.0 0.0
16/02:30pm 39.8 38.3 17.8 27 14.5 NNW 22 32 12 17 1006.6 1006.6 0.0
16/02:00pm 40.0 40.5 17.4 26 14.8 WNW 11 22 6 12 1007.2 1007.2 0.0
16/01:30pm 40.0 40.3 18.0 27 14.5 NNW 13 22 7 12 1008.0 1008.0 0.0
16/01:00pm 39.3 40.0 18.0 29 14.0 NE 11 19 6 10 1008.6 1008.6 0.0
16/12:30pm 37.6 37.6 17.1 30 13.3 NW 13 20 7 11 1009.4 1009.4 0.0
16/12:00pm 39.1 39.2 18.3 29 13.7 NNW 15 28 8 15 1010.0 1010.0 0.0
16/11:30am 37.9 38.5 17.8 30 13.1 NW 11 24 6 13 1010.6 1010.6 0.0
16/11:00am 37.3 36.8 17.8 31 12.7 W 17 24 9 13 1010.9 1010.9 0.0
16/10:30am 36.5 37.1 18.6 35 11.8 WNW 13 24 7 13 1011.4 1011.4 0.0
16/10:00am 34.9 35.1 18.5 38 10.7 WNW 15 22 8 12 1011.5 1011.5 0.0
16/09:30am 34.4 35.3 20.0 42 9.6 W 15 22 8 12 1011.5 1011.5 0.0
16/09:00am 33.7 34.2 20.1 44 9.0 W 17 22 9 12 1011.7 1011.7 0.0
16/08:30am 32.5 32.9 21.0 50 7.7 W 20 24 11 13 1011.5 1011.5 0.0
16/08:00am 32.4 33.0 21.3 52 7.5 WNW 20 26 11 14 1011.5 1011.5 0.0
16/07:30am 31.6 32.1 21.2 54 7.0 NW 20 24 11 13 1011.2 1011.2 0.0
16/07:00am 30.7 32.3 21.5 58 6.2 NNW 15 20 8 11 1010.8 1010.8 0.0
16/06:30am 30.1 32.5 21.5 60 5.8 NNW 11 15 6 8 1010.6 1010.6 0.0
16/06:00am 30.1 31.7 21.5 60 5.8 NNW 15 20 8 11 1009.9 1009.9 0.0
16/05:30am 30.0 32.2 21.1 59 5.9 NNW 11 15 6 8 1009.8 1009.8 0.0
16/05:00am 30.2 32.1 21.3 59 6.0 NNW 13 17 7 9 1009.7 1009.7 0.0
16/04:30am 30.1 32.6 21.7 60 5.7 N 11 15 6 8 1009.2 1009.2 0.0
16/04:00am 29.9 32.8 21.8 62 5.5 NW 9 11 5 6 1008.6 1008.6 0.0
16/03:30am 29.8 34.4 21.7 61 5.5 CALM 0 7 0 4 1008.8 1008.8 0.0
16/03:00am 30.1 33.8 22.3 63 5.3 N 6 7 3 4 1008.7 1008.7 0.0
16/02:30am 30.3 33.7 22.7 64 5.2 WNW 9 9 5 5 1008.8 1008.8 0.0
16/02:00am 30.1 33.8 22.3 63 5.3 NNW 6 7 3 4 1009.4 1009.4 0.0
16/01:30am 30.4 32.7 22.0 60 5.7 NNW 13 17 7 9 1009.4 1009.4 0.0
16/01:00am 30.5 32.4 22.7 63 5.3 N 17 20 9 11 1009.4 1009.4 0.0
16/12:30am 30.6 32.9 22.7 62 5.4 N 15 24 8 13 1009.9 1009.9 0.0
16/12:00am 30.9 32.3 21.9 58 6.1 NNE 17 22 9 12 1010.2 1010.2 0.0
 
Date/Time
CST
Temp
°C
App
Temp
°C
Dew
Point
°C
Rel
Hum
%
Delta-T
°C
Wind Press
QNH
hPa
Press
MSL
hPa
Rain since
9am
mm
Dir  Spd
km/h
Gust
km/h
Spd
kts
Gust
kts
15/11:30pm 30.9 31.4 21.9 58 6.1 NE 22 30 12 16 1010.7 1010.7 0.0
15/11:00pm 30.6 30.8 22.7 62 5.4 E 26 35 14 19 1010.9 1010.9 0.0
15/10:30pm 31.2 33.6 22.2 58 6.1 NE 13 20 7 11 1009.9 1009.9 0.0
15/10:00pm 31.4 35.0 22.4 59 6.1 ENE 7 15 4 8 1009.7 1009.7 0.0
15/09:30pm 31.6 34.8 22.3 57 6.3 ESE 9 11 5 6 1009.0 1009.0 0.0
15/09:00pm 31.6 34.2 22.0 56 6.5 ESE 11 22 6 12 1008.6 1008.6 0.0
15/08:30pm 32.3 33.2 21.5 53 7.3 N 19 30 10 16 1008.5 1008.5 0.0
15/08:00pm 32.6 31.3 22.1 54 7.2 N 32 43 17 23 1007.4 1007.4 0.0
15/07:30pm 33.3 32.4 21.5 50 8.0 N 28 39 15 21 1007.2 1007.2 0.0
15/07:00pm 33.9 32.0 21.0 47 8.7 N 32 43 17 23 1007.1 1007.1 0.0
15/06:30pm 35.7 33.9 19.6 39 10.7 N 28 39 15 21 1006.5 1006.5 0.0
15/06:00pm 36.8 34.3 18.8 34 11.9 N 30 37 16 20 1006.0 1006.0 0.0
15/05:30pm 38.3 35.7 18.7 31 13.0 N 30 37 16 20 1005.9 1005.9 0.0
15/05:00pm 39.0 37.0 18.3 30 13.6 N 26 35 14 19 1005.9 1005.9 0.0
15/04:30pm 40.2 39.2 17.6 26 14.8 NW 19 26 10 14 1006.2 1006.2 0.0
15/04:00pm 40.0 40.8 17.4 26 14.8 ESE 9 15 5 8 1006.6 1006.6 0.0
15/03:30pm 40.2 40.0 17.6 26 14.8 W 15 22 8 12 1007.1 1007.1 0.0
15/03:00pm 40.8 41.1 18.7 27 14.7 WSW 15 24 8 13 1007.5 1007.5 0.0
15/02:30pm 39.8 40.7 18.4 28 14.2 NW 11 19 6 10 1008.2 1008.2 0.0
15/02:00pm 40.0 40.1 19.1 29 14.0 WNW 17 26 9 14 1008.8 1008.8 0.0
15/01:30pm 38.9 39.8 19.2 31 13.1 WNW 13 20 7 11 1009.4 1009.4 0.0
15/01:00pm 37.2 37.8 18.7 33 12.2 W 13 24 7 13 1010.0 1010.0 0.0
15/12:30pm 38.2 38.5 19.6 34 12.5 NNW 17 24 9 13 1010.4 1010.4 0.0
15/12:00pm 37.2 37.3 19.2 35 11.9 NNW 17 30 9 16 1010.9 1010.9 0.0
15/11:30am 36.1 36.5 18.2 34 11.7 N 13 20 7 11 1011.6 1011.6 0.0
15/11:00am 34.8 36.6 21.1 44 9.3 NW 13 17 7 9 1012.0 1012.0 0.0
15/10:30am 34.7 36.3 22.1 48 8.6 NNW 17 26 9 14 1012.4 1012.4 0.0
15/10:00am 33.2 34.6 22.6 53 7.3 NNW 19 26 10 14 1012.9 1012.9 0.0
15/09:30am 32.1 34.2 23.1 59 6.2 N 17 24 9 13 1012.9 1012.9 0.0
15/09:00am 31.3 33.7 23.7 64 5.3 NNE 17 22 9 12 1012.8 1012.8 0.0
15/08:30am 29.9 32.3 23.6 69 4.3 NNE 17 26 9 14 1012.7 1012.7 0.0
15/08:00am 30.0 32.1 23.7 69 4.4 NE 19 26 10 14 1012.5 1012.5 0.0
15/07:30am 28.7 31.7 24.0 76 3.3 ESE 15 19 8 10 1011.8 1011.8 0.0
15/07:00am 28.4 30.9 23.8 76 3.2 E 17 20 9 11 1011.5 1011.5 0.0
15/06:30am 27.8 31.1 23.2 76 3.1 ESE 11 13 6 7 1010.9 1010.9 0.0
15/06:00am 27.8 31.3 23.6 78 2.9 ENE 11 13 6 7 1010.2 1010.2 0.0
15/05:30am 28.1 32.0 23.0 74 3.5 ESE 7 9 4 5 1009.8 1009.8 0.0
15/05:00am 28.4 31.6 23.1 73 3.6 ESE 11 13 6 7 1009.8 1009.8 0.0
15/04:30am 28.1 31.7 23.0 74 3.5 ESE 9 13 5 7 1009.5 1009.5 0.0
15/04:00am 28.2 30.8 23.3 75 3.4 E 15 17 8 9 1009.3 1009.3 0.0
15/03:30am 28.2 31.1 23.1 74 3.5 E 13 15 7 8 1008.8 1008.8 0.0
15/03:00am 28.2 31.2 22.7 72 3.7 SE 11 13 6 7 1008.4 1008.4 0.0
15/02:30am 28.3 31.5 23.0 73 3.6 ESE 11 13 6 7 1008.9 1008.9 0.0
15/02:00am 28.3 31.1 23.0 73 3.6 ESE 13 15 7 8 1009.1 1009.1 0.0
15/01:30am 28.0 31.7 22.5 72 3.7 ENE 7 9 4 5 1008.8 1008.8 0.0
15/01:00am 28.1 31.6 22.8 73 3.6 ENE 9 11 5 6 1008.8 1008.8 0.0
15/12:30am 28.1 31.6 22.1 70 4.0 SE 7 9 4 5 1008.5 1008.5 0.0
15/12:00am 28.3 30.3 22.3 70 4.1 ESE 15 19 8 10 1008.8 1008.8 0.0
 
Date/Time
CST
Temp
°C
App
Temp
°C
Dew
Point
°C
Rel
Hum
%
Delta-T
°C
Wind Press
QNH
hPa
Press
MSL
hPa
Rain since
9am
mm
Dir  Spd
km/h
Gust
km/h
Spd
kts
Gust
kts
14/11:30pm 28.8 33.7 23.0 71 4.0 ENE 2 9 1 5 1008.1 1008.1 0.0
14/11:00pm 29.6 32.7 22.8 67 4.6 WSW 11 13 6 7 1007.6 1007.6 0.0
14/10:30pm 29.5 32.9 22.7 67 4.6 WSW 9 11 5 6 1007.8 1007.8 0.0
14/10:00pm 29.2 32.2 23.4 71 4.0 SW 13 17 7 9 1008.8 1008.8 0.0
14/09:30pm 30.2 33.3 22.1 62 5.5 NW 9 15 5 8 1008.9 1008.9 0.0
14/09:00pm 29.3 30.1 21.8 64 5.0 WNW 20 24 11 13 1009.0 1009.0 0.0
14/08:30pm 30.0 30.7 20.5 56 6.3 NNW 17 24 9 13 1008.4 1008.4 0.0
14/08:00pm 27.5 29.3 21.8 71 3.8 NE 15 22 8 12 1009.4 1009.4 0.0
14/07:30pm 29.2 26.6 19.8 57 6.2 E 33 44 18 24 1010.3 1010.3 0.0
14/07:24pm 31.1 28.2 20.1 52 7.3 E 35 54 19 29 1010.1 1010.1 0.0
14/07:18pm 31.4 28.8 20.0 50 7.5 ESE 33 54 18 29 1010.0 1010.0 0.0
14/07:00pm 32.2 32.1 22.3 56 6.8 N 26 41 14 22 1008.2 1008.2 0.0
14/06:30pm 32.2 30.8 22.3 56 6.8 N 33 48 18 26 1006.6 1006.6 0.0
14/06:23pm 32.3 30.8 22.7 57 6.6 N 35 54 19 29 1006.7 1006.7 0.0
14/06:00pm 32.5 28.9 21.7 53 7.3 N 43 56 23 30 1005.7 1005.7 0.0
14/05:30pm 33.0 29.9 20.5 47 8.4 N 37 57 20 31 1005.5 1005.5 0.0
14/05:00pm 34.3 31.1 20.3 44 9.4 N 37 46 20 25 1004.5 1004.5 0.0
14/04:30pm 36.1 34.3 20.4 40 10.6 N 30 43 16 23 1004.7 1004.7 0.0
14/04:00pm 38.2 36.0 18.6 31 12.9 NNE 28 35 15 19 1004.5 1004.5 0.0
14/03:30pm 39.6 39.2 19.3 30 13.6 NNE 20 28 11 15 1004.8 1004.8 0.0
14/03:00pm 39.5 40.2 19.7 31 13.3 N 15 28 8 15 1005.3 1005.3 0.0
14/02:30pm 40.7 40.5 19.7 29 14.2 NNE 20 32 11 17 1005.5 1005.5 0.0
14/02:00pm 40.6 41.2 20.2 31 13.8 NNE 17 26 9 14 1006.3 1006.3 0.0
14/01:30pm 39.8 40.7 20.0 31 13.4 NNE 15 24 8 13 1006.7 1006.7 0.0

Other Formats:

Comma delimited format used in spreadsheet applications
http://www.bom.gov.au/fwo/IDD60801/IDD60801.95214.axf

JavaScript Object Notation format (JSON) in row-major order
http://www.bom.gov.au/fwo/IDD60801/IDD60801.95214.json